sensor_id;sensor_type;location;lat;lon;timestamp;pressure;altitude;pressure_sealevel;temperature;humidity
84770;BME280;75001;51.082;17.008;2024-03-25T00:07:18;100202.65;;;9.33;54.43
84770;BME280;75001;51.082;17.008;2024-03-25T00:17:28;100195.91;;;9.37;54.47
84770;BME280;75001;51.082;17.008;2024-03-25T00:27:38;100186.54;;;9.31;54.12
84770;BME280;75001;51.082;17.008;2024-03-25T00:37:48;100196.70;;;9.29;54.09
84770;BME280;75001;51.082;17.008;2024-03-25T00:48:01;100215.45;;;8.59;58.87
84770;BME280;75001;51.082;17.008;2024-03-25T00:58:08;100216.62;;;8.20;60.58
84770;BME280;75001;51.082;17.008;2024-03-25T01:08:18;100205.15;;;8.08;61.45
84770;BME280;75001;51.082;17.008;2024-03-25T01:18:28;100182.08;;;8.51;60.62
84770;BME280;75001;51.082;17.008;2024-03-25T01:28:38;100185.39;;;8.62;60.33
84770;BME280;75001;51.082;17.008;2024-03-25T01:38:49;100168.91;;;8.83;60.21
84770;BME280;75001;51.082;17.008;2024-03-25T01:48:58;100176.63;;;8.96;59.99
84770;BME280;75001;51.082;17.008;2024-03-25T01:59:08;100167.13;;;8.92;60.02
84770;BME280;75001;51.082;17.008;2024-03-25T02:09:18;100160.23;;;8.98;60.06
84770;BME280;75001;51.082;17.008;2024-03-25T02:19:30;100164.09;;;8.95;60.49
84770;BME280;75001;51.082;17.008;2024-03-25T02:29:38;100147.63;;;8.53;61.50
84770;BME280;75001;51.082;17.008;2024-03-25T02:39:48;100162.37;;;8.58;61.56
84770;BME280;75001;51.082;17.008;2024-03-25T02:49:58;100164.30;;;8.48;62.20
84770;BME280;75001;51.082;17.008;2024-03-25T03:00:09;100161.81;;;8.37;62.77
84770;BME280;75001;51.082;17.008;2024-03-25T03:10:18;100169.41;;;8.51;62.58
84770;BME280;75001;51.082;17.008;2024-03-25T03:20:28;100169.92;;;8.37;63.04
84770;BME280;75001;51.082;17.008;2024-03-25T03:30:38;100178.83;;;8.10;64.00
84770;BME280;75001;51.082;17.008;2024-03-25T03:51:02;100199.04;;;8.06;64.82
84770;BME280;75001;51.082;17.008;2024-03-25T04:01:17;100201.21;;;8.02;64.51
84770;BME280;75001;51.082;17.008;2024-03-25T04:11:19;100190.47;;;7.83;64.86
84770;BME280;75001;51.082;17.008;2024-03-25T04:21:28;100186.80;;;8.11;64.75
84770;BME280;75001;51.082;17.008;2024-03-25T04:31:38;100193.48;;;8.45;64.18
84770;BME280;75001;51.082;17.008;2024-03-25T04:41:48;100199.32;;;8.68;63.83
84770;BME280;75001;51.082;17.008;2024-03-25T04:51:58;100207.85;;;8.45;63.98
84770;BME280;75001;51.082;17.008;2024-03-25T05:02:08;100229.49;;;8.35;64.47
84770;BME280;75001;51.082;17.008;2024-03-25T05:12:18;100223.72;;;8.21;64.46
84770;BME280;75001;51.082;17.008;2024-03-25T05:22:28;100232.21;;;7.98;65.05
84770;BME280;75001;51.082;17.008;2024-03-25T05:32:38;100243.41;;;8.03;65.21
84770;BME280;75001;51.082;17.008;2024-03-25T05:42:49;100259.24;;;8.26;65.06
84770;BME280;75001;51.082;17.008;2024-03-25T05:52:59;100277.71;;;8.30;64.73
84770;BME280;75001;51.082;17.008;2024-03-25T06:03:09;100294.41;;;8.16;64.76
84770;BME280;75001;51.082;17.008;2024-03-25T06:13:20;100297.15;;;8.06;64.74
84770;BME280;75001;51.082;17.008;2024-03-25T06:23:29;100328.45;;;7.60;65.55
84770;BME280;75001;51.082;17.008;2024-03-25T06:33:39;100346.48;;;7.69;65.83
84770;BME280;75001;51.082;17.008;2024-03-25T06:43:53;100370.08;;;8.06;65.07
84770;BME280;75001;51.082;17.008;2024-03-25T06:53:59;100363.63;;;8.27;65.08
84770;BME280;75001;51.082;17.008;2024-03-25T07:04:09;100383.81;;;8.32;65.41
84770;BME280;75001;51.082;17.008;2024-03-25T07:14:19;100393.09;;;8.77;64.97
84770;BME280;75001;51.082;17.008;2024-03-25T07:24:29;100411.04;;;9.05;64.18
84770;BME280;75001;51.082;17.008;2024-03-25T07:34:39;100424.48;;;9.52;63.22
84770;BME280;75001;51.082;17.008;2024-03-25T07:44:49;100436.22;;;9.15;63.06
84770;BME280;75001;51.082;17.008;2024-03-25T07:54:59;100458.84;;;9.14;63.38
84770;BME280;75001;51.082;17.008;2024-03-25T08:05:09;100464.13;;;9.16;63.51
84770;BME280;75001;51.082;17.008;2024-03-25T08:15:19;100474.95;;;9.16;63.83
84770;BME280;75001;51.082;17.008;2024-03-25T08:25:29;100482.39;;;9.04;64.14
84770;BME280;75001;51.082;17.008;2024-03-25T08:35:39;100486.12;;;9.31;63.94
84770;BME280;75001;51.082;17.008;2024-03-25T08:45:49;100508.32;;;9.34;63.72
84770;BME280;75001;51.082;17.008;2024-03-25T09:02:24;100522.01;;;8.86;64.71
84770;BME280;75001;51.082;17.008;2024-03-25T09:12:33;100537.59;;;9.11;64.23
84770;BME280;75001;51.082;17.008;2024-03-25T09:22:43;100562.09;;;9.20;64.42
84770;BME280;75001;51.082;17.008;2024-03-25T09:32:54;100563.92;;;9.19;64.63
84770;BME280;75001;51.082;17.008;2024-03-25T09:43:09;100573.05;;;9.28;65.10
84770;BME280;75001;51.082;17.008;2024-03-25T09:53:14;100577.64;;;9.82;64.79
84770;BME280;75001;51.082;17.008;2024-03-25T10:03:24;100587.92;;;10.06;64.22
84770;BME280;75001;51.082;17.008;2024-03-25T10:13:37;100601.17;;;9.82;64.55
84770;BME280;75001;51.082;17.008;2024-03-25T10:23:50;100599.62;;;9.42;65.01
84770;BME280;75001;51.082;17.008;2024-03-25T10:33:57;100616.95;;;9.59;65.12
84770;BME280;75001;51.082;17.008;2024-03-25T10:44:07;100623.09;;;9.51;65.55
84770;BME280;75001;51.082;17.008;2024-03-25T10:54:18;100620.18;;;10.00;65.06
84770;BME280;75001;51.082;17.008;2024-03-25T11:04:31;100634.85;;;10.34;63.89
84770;BME280;75001;51.082;17.008;2024-03-25T11:14:40;100642.31;;;9.95;64.04
84770;BME280;75001;51.082;17.008;2024-03-25T11:24:50;100632.60;;;10.30;63.64
84770;BME280;75001;51.082;17.008;2024-03-25T11:35:00;100640.45;;;10.69;62.61
84770;BME280;75001;51.082;17.008;2024-03-25T11:45:18;100651.84;;;10.54;61.67
84770;BME280;75001;51.082;17.008;2024-03-25T11:55:20;100655.37;;;10.37;61.40
84770;BME280;75001;51.082;17.008;2024-03-25T12:05:30;100661.67;;;10.37;61.48
84770;BME280;75001;51.082;17.008;2024-03-25T12:15:40;100642.70;;;10.37;61.50
84770;BME280;75001;51.082;17.008;2024-03-25T12:25:50;100651.26;;;10.33;61.40
84770;BME280;75001;51.082;17.008;2024-03-25T12:36:00;100653.80;;;10.80;60.34
84770;BME280;75001;51.082;17.008;2024-03-25T12:46:11;100650.92;;;10.63;60.08
84770;BME280;75001;51.082;17.008;2024-03-25T12:56:20;100670.20;;;10.43;59.39
84770;BME280;75001;51.082;17.008;2024-03-25T13:06:30;100658.50;;;10.42;60.48
84770;BME280;75001;51.082;17.008;2024-03-25T13:16:40;100650.81;;;11.27;59.70
84770;BME280;75001;51.082;17.008;2024-03-25T13:26:53;100650.22;;;11.41;58.04
84770;BME280;75001;51.082;17.008;2024-03-25T13:37:04;100643.99;;;11.23;58.17
84770;BME280;75001;51.082;17.008;2024-03-25T13:47:13;100644.98;;;11.74;56.33
84770;BME280;75001;51.082;17.008;2024-03-25T13:57:23;100635.20;;;12.23;56.28
84770;BME280;75001;51.082;17.008;2024-03-25T14:07:33;100663.95;;;12.26;54.62
84770;BME280;75001;51.082;17.008;2024-03-25T14:17:43;100703.55;;;10.88;57.82
84770;BME280;75001;51.082;17.008;2024-03-25T14:27:53;100718.15;;;10.42;59.66
84770;BME280;75001;51.082;17.008;2024-03-25T14:38:07;100700.11;;;10.51;60.13
84770;BME280;75001;51.082;17.008;2024-03-25T14:48:14;100710.68;;;10.72;60.03
84770;BME280;75001;51.082;17.008;2024-03-25T14:58:23;100696.41;;;11.05;59.84
84770;BME280;75001;51.082;17.008;2024-03-25T15:08:34;100703.65;;;11.14;58.75
84770;BME280;75001;51.082;17.008;2024-03-25T15:18:44;100720.69;;;10.89;58.99
84770;BME280;75001;51.082;17.008;2024-03-25T15:28:54;100725.21;;;10.98;57.79
84770;BME280;75001;51.082;17.008;2024-03-25T15:39:04;100728.14;;;11.05;57.32
84770;BME280;75001;51.082;17.008;2024-03-25T15:49:14;100741.23;;;10.74;56.73
84770;BME280;75001;51.082;17.008;2024-03-25T15:59:24;100747.98;;;10.42;57.15
84770;BME280;75001;51.082;17.008;2024-03-25T16:09:41;100738.53;;;10.46;57.33
84770;BME280;75001;51.082;17.008;2024-03-25T16:19:44;100749.96;;;10.40;57.12
84770;BME280;75001;51.082;17.008;2024-03-25T16:29:54;100760.15;;;10.28;57.50
84770;BME280;75001;51.082;17.008;2024-03-25T16:40:05;100766.53;;;10.37;57.76
84770;BME280;75001;51.082;17.008;2024-03-25T16:50:14;100773.23;;;10.43;57.62
84770;BME280;75001;51.082;17.008;2024-03-25T17:00:24;100787.63;;;10.43;57.64
84770;BME280;75001;51.082;17.008;2024-03-25T17:10:35;100811.81;;;10.27;57.69
84770;BME280;75001;51.082;17.008;2024-03-25T17:20:47;100808.96;;;10.19;57.53
84770;BME280;75001;51.082;17.008;2024-03-25T17:30:54;100813.93;;;10.23;57.42
84770;BME280;75001;51.082;17.008;2024-03-25T17:41:05;100817.66;;;10.12;57.14
84770;BME280;75001;51.082;17.008;2024-03-25T17:51:14;100823.39;;;10.09;57.22
84770;BME280;75001;51.082;17.008;2024-03-25T18:01:25;100826.10;;;10.09;57.46
84770;BME280;75001;51.082;17.008;2024-03-25T18:11:35;100836.63;;;10.12;57.44
84770;BME280;75001;51.082;17.008;2024-03-25T18:21:45;100839.22;;;10.14;57.45
84770;BME280;75001;51.082;17.008;2024-03-25T18:31:55;100838.36;;;10.13;57.43
84770;BME280;75001;51.082;17.008;2024-03-25T18:42:05;100854.94;;;10.01;58.22
84770;BME280;75001;51.082;17.008;2024-03-25T18:52:15;100859.50;;;9.90;57.68
84770;BME280;75001;51.082;17.008;2024-03-25T19:02:26;100863.08;;;9.62;58.09
84770;BME280;75001;51.082;17.008;2024-03-25T19:12:39;100863.80;;;9.45;58.56
84770;BME280;75001;51.082;17.008;2024-03-25T19:22:48;100865.66;;;8.84;59.28
84770;BME280;75001;51.082;17.008;2024-03-25T19:32:58;100868.26;;;8.96;59.33
84770;BME280;75001;51.082;17.008;2024-03-25T19:43:08;100866.09;;;8.89;59.76
84770;BME280;75001;51.082;17.008;2024-03-25T19:53:18;100867.78;;;8.81;59.96
84770;BME280;75001;51.082;17.008;2024-03-25T20:03:28;100869.12;;;8.65;60.59
84770;BME280;75001;51.082;17.008;2024-03-25T20:13:38;100866.52;;;8.54;60.57
84770;BME280;75001;51.082;17.008;2024-03-25T20:23:48;100880.15;;;8.43;60.88
84770;BME280;75001;51.082;17.008;2024-03-25T20:33:58;100892.44;;;8.36;60.88
84770;BME280;75001;51.082;17.008;2024-03-25T20:44:08;100896.41;;;8.32;60.99
84770;BME280;75001;51.082;17.008;2024-03-25T20:54:18;100898.59;;;8.38;61.01
84770;BME280;75001;51.082;17.008;2024-03-25T21:04:28;100898.47;;;8.39;60.92
84770;BME280;75001;51.082;17.008;2024-03-25T21:14:38;100894.21;;;8.26;61.05
84770;BME280;75001;51.082;17.008;2024-03-25T21:24:48;100905.76;;;8.28;61.00
84770;BME280;75001;51.082;17.008;2024-03-25T21:34:58;100904.31;;;8.24;61.14
84770;BME280;75001;51.082;17.008;2024-03-25T21:45:08;100903.05;;;8.28;61.02
84770;BME280;75001;51.082;17.008;2024-03-25T21:55:18;100893.50;;;8.24;61.04
84770;BME280;75001;51.082;17.008;2024-03-25T22:05:28;100895.47;;;8.22;61.07
84770;BME280;75001;51.082;17.008;2024-03-25T22:15:38;100900.57;;;8.15;61.17
84770;BME280;75001;51.082;17.008;2024-03-25T22:25:48;100895.76;;;8.18;61.05
84770;BME280;75001;51.082;17.008;2024-03-25T22:35:59;100887.05;;;8.15;61.00
84770;BME280;75001;51.082;17.008;2024-03-25T22:46:08;100880.87;;;8.03;61.17
84770;BME280;75001;51.082;17.008;2024-03-25T22:56:18;100888.77;;;7.95;61.25
84770;BME280;75001;51.082;17.008;2024-03-25T23:06:28;100885.52;;;7.80;61.31
84770;BME280;75001;51.082;17.008;2024-03-25T23:16:38;100892.55;;;7.72;61.46
84770;BME280;75001;51.082;17.008;2024-03-25T23:26:48;100906.84;;;7.62;61.46
84770;BME280;75001;51.082;17.008;2024-03-25T23:36:58;100909.49;;;7.41;61.62
84770;BME280;75001;51.082;17.008;2024-03-25T23:47:08;100914.17;;;7.17;61.80
84770;BME280;75001;51.082;17.008;2024-03-25T23:57:19;100905.13;;;7.07;62.00
